メインページ
METAR-TAF:

METAR-TAF

空港 :

バミューダ諸島, バミューダ諸島

バミューダ国際空港

緯度: 32-22N, 経度: 064-41W, 海抜: 6m

現時点の気象観測

当レポートは22分前の22:55(UTC)に作成
西/北西の風 14kt
気温 24°C
湿度 69%
気圧 1017 hPa
視程10km以上
高度2300ftの雲はほとんどない
高度3300ftの雲は散在している
高度30000ftの千切れ雲あり

METAR: TXKF 272255Z 29014KT 9999 FEW023 SCT033 BKN300 24/18 Q1017

時間: 20:17 (23:17 UTC)

予報

当レポートは5時間42分前の17:35(UTC)に作成
予報は27日の 18時(UTC)から 28日の 18時(UTC)まで有効
西の風 15kt
視程10km以上
高度2000ftの雲は散在している
高度30000ftの千切れ雲あり
27日の 20時(UTC)から 27日の 24時(UTC)まで徐々に
西の風 10kt
28日の 14時(UTC)から 28日の 18時(UTC)まで徐々に
南西の風 10kt

TAF: TXKF 271735Z 2718/2818 28015KT 9999 SCT020 BKN300 BECMG 2720/2724 26010KT BECMG 2814/2818 22010KT

4,000以上の空港の気象観測と天気予報(METAR報とTAF報)

利用可能な観測所は地図上に黄色い丸と赤い丸で示す。

丸の上にカーソルを重ねると観測所名を参照できる。

次にクリックすると気象観測と天気予報を参照できる。

マップの切り替え:黒色「×」印の緑ボタンをクリックして拡大、「-」印の緑ボタンをクリックして縮小、緑色の三角印をクリックして隣りの地図に切り替え


METAR-TAF: